Abbot Village, Maine
Current Conditions -  °F | °C
As of 7:53 PM on Friday 24 Oct 2014 (Local Time) from KBGR Reporting Station
Light Rain Light Rain  
Wind Chill:   Ceiling: 900
Heat Index:   Visibility: 4mi
Dew Point:   Wind: 14mph
Humidity: 93%   Direction: 350°N
Pressure: 29.67"   Gusts: NA
Location:  45.19°N, 69.45°W
Report Text: KBGR 242353Z 35012KT 4SM -RA BR BKN009 OVC011 07/06 A2967 RMK AO2 RAE30B49 SLP047 P0001 60005 T00670056 10083 20067 53006
Loading
Personal Weather Stations






























Interactive Weather Map
Tropical Storm Tracking
New forecast layout! Learn more

10-Day Weather Forecast

Advertisements
Track Severe Weather on mobile